LTAC/ESB METAR and TAF weather

Enter ICAO airport designator
Station Type Date Time Source
LTAC METAR 2019/05/20 10:20 UTC NOAA

LTAC 201020Z 25006KT 9999 FEW040 SCT200 25/08 Q1017 NOSIG


Station Type Date Time Source
LTAC Decoded METAR 2019/05/20 10:20 UTC NOAA

Ankara / Esenboga, Turkey (LTAC) 40-07N 032-59E 949M
May 20, 2019 - 06:20 AM EDT / 2019.05.20 1020 UTC
Wind: from the WSW (250 degrees) at 7 MPH (6 KT):0
Visibility: greater than 7 mile(s):0
Sky conditions: partly cloudy
Temperature: 77 F (25 C)
Dew Point: 46 F (8 C)
Relative Humidity: 33%
Pressure (altimeter): 30.03 in. Hg (1017 hPa)
ob: LTAC 201020Z 25006KT 9999 FEW040 SCT200 25/08 Q1017 NOSIG
cycle: 10

Station Type Date Time Source
LTAC TAF 2019/05/20 06:03 UTC NOAA

TAF TAF LTAC 200440Z 2006/2106 VRB02KT 9999 SCT040
TEMPO 2011/2015 28012KT
BECMG 2016/2018 CAVOK

Example: see airport list